createdAt,value
2017-10-17T00:01:39.275Z,14.07
2017-10-17T00:04:06.839Z,15.67
2017-10-17T00:06:34.446Z,17.33
2017-10-17T00:09:02.014Z,12.70
2017-10-17T00:11:34.602Z,18.43
2017-10-17T00:14:02.188Z,16.10
2017-10-17T00:16:29.773Z,14.97
2017-10-17T00:18:57.321Z,16.13
2017-10-17T00:21:24.865Z,15.70
2017-10-17T00:23:52.404Z,14.63
2017-10-17T00:26:19.953Z,19.97
2017-10-17T00:28:47.467Z,17.23
2017-10-17T00:31:15.039Z,14.07
2017-10-17T00:33:43.357Z,23.43
2017-10-17T00:36:13.462Z,15.83
2017-10-17T00:38:44.590Z,15.20
2017-10-17T00:41:13.100Z,18.70
2017-10-17T00:43:40.683Z,18.13
2017-10-17T00:46:09.797Z,15.17
2017-10-17T00:48:37.355Z,18.27
2017-10-17T00:51:04.902Z,18.10
2017-10-17T00:53:32.516Z,22.50
2017-10-17T00:56:00.826Z,16.00
2017-10-17T00:58:28.433Z,20.40
2017-10-17T01:00:56.001Z,16.13
2017-10-17T01:03:23.529Z,16.67
2017-10-17T01:05:51.117Z,16.10
2017-10-17T01:08:18.649Z,13.40
2017-10-17T01:10:46.286Z,23.20
2017-10-17T01:13:13.861Z,13.67
2017-10-17T01:15:41.397Z,16.43
2017-10-17T01:18:09.732Z,20.13
2017-10-17T01:20:37.271Z,19.03
2017-10-17T01:23:10.516Z,19.33
2017-10-17T01:25:38.815Z,14.70
2017-10-17T01:28:09.916Z,14.77
2017-10-17T01:30:37.449Z,16.20
2017-10-17T01:33:14.832Z,17.10
2017-10-17T01:35:42.399Z,16.47
2017-10-17T01:38:10.841Z,14.73
2017-10-17T01:40:39.145Z,18.90
2017-10-17T01:43:06.723Z,18.13
2017-10-17T01:45:35.777Z,17.17
2017-10-17T01:48:14.796Z,16.50
2017-10-17T01:50:57.261Z,14.70
2017-10-17T01:53:29.372Z,21.43
2017-10-17T01:55:56.926Z,18.80
2017-10-17T01:58:24.488Z,22.13
2017-10-17T02:00:52.023Z,17.67
2017-10-17T02:03:19.538Z,18.90
2017-10-17T02:05:47.122Z,23.07
2017-10-17T02:08:14.665Z,19.40
2017-10-17T02:10:57.114Z,15.33
2017-10-17T02:13:24.677Z,13.93
2017-10-17T02:15:52.173Z,23.70
2017-10-17T02:18:23.987Z,16.27
2017-10-17T02:20:51.534Z,17.17
2017-10-17T02:23:19.105Z,15.30
2017-10-17T02:25:59.005Z,16.27
2017-10-17T02:31:31.225Z,17.17
2017-10-17T02:34:00.220Z,17.03
2017-10-17T02:36:27.852Z,15.77
2017-10-17T02:38:56.140Z,17.23
2017-10-17T02:41:29.481Z,16.07
2017-10-17T02:43:57.834Z,19.50
2017-10-17T02:46:25.419Z,19.10
2017-10-17T02:49:11.563Z,16.97
2017-10-17T02:51:40.611Z,17.70
2017-10-17T02:54:08.171Z,14.87
2017-10-17T02:56:35.732Z,18.60
2017-10-17T02:59:03.286Z,22.30
2017-10-17T03:01:35.370Z,15.67
2017-10-17T03:04:02.890Z,16.90
2017-10-17T03:06:30.424Z,18.10
2017-10-17T03:08:58.832Z,14.80
2017-10-17T03:11:26.350Z,19.20
2017-10-17T03:13:55.358Z,18.43
2017-10-17T03:16:23.762Z,19.60
2017-10-17T03:18:51.310Z,15.00
2017-10-17T03:21:23.312Z,21.63
2017-10-17T03:23:52.714Z,21.53
2017-10-17T03:26:20.244Z,24.37
2017-10-17T03:28:47.770Z,15.10
2017-10-17T03:31:16.095Z,16.07
2017-10-17T03:33:44.462Z,18.77
2017-10-17T03:36:15.372Z,20.50
2017-10-17T03:38:46.156Z,16.90
2017-10-17T03:41:21.543Z,19.30
2017-10-17T03:43:53.918Z,21.20
2017-10-17T03:49:39.687Z,24.47
2017-10-17T03:52:08.977Z,16.20
2017-10-17T03:54:36.562Z,21.90
2017-10-17T03:57:08.763Z,23.53
2017-10-17T03:59:53.881Z,24.50
2017-10-17T04:02:21.700Z,23.10
2017-10-17T04:05:12.318Z,20.33
2017-10-17T04:07:50.288Z,18.43
2017-10-17T04:10:26.538Z,16.53
2017-10-17T04:13:00.835Z,22.33
2017-10-17T04:15:28.394Z,18.60
2017-10-17T04:18:04.639Z,21.37
2017-10-17T04:20:41.678Z,19.87
2017-10-17T04:23:25.976Z,26.27
2017-10-17T04:26:07.825Z,25.30
2017-10-17T04:28:58.239Z,17.90
2017-10-17T04:34:44.028Z,17.30
2017-10-17T04:37:19.068Z,18.73
2017-10-17T04:39:46.626Z,23.03
2017-10-17T04:42:43.756Z,20.30
2017-10-17T04:45:17.278Z,20.80
2017-10-17T04:47:47.564Z,26.13
2017-10-17T04:50:31.031Z,26.50
2017-10-17T04:53:10.454Z,34.00
2017-10-17T04:55:43.915Z,29.60
2017-10-17T04:58:11.616Z,52.70
2017-10-17T05:00:39.191Z,26.33
2017-10-17T05:03:19.536Z,29.47
2017-10-17T05:05:56.693Z,24.50
2017-10-17T05:08:29.667Z,24.33
2017-10-17T05:10:57.969Z,20.87
2017-10-17T05:16:49.815Z,22.20
2017-10-17T05:19:35.961Z,32.20
2017-10-17T05:22:16.943Z,42.07
2017-10-17T05:24:51.051Z,28.17
2017-10-17T05:27:26.067Z,26.30
2017-10-17T05:29:53.743Z,32.57
2017-10-17T05:32:21.328Z,33.27
2017-10-17T05:34:50.243Z,69.47
2017-10-17T05:37:18.569Z,44.70
2017-10-17T05:39:49.479Z,39.80
2017-10-17T05:42:17.116Z,21.70
2017-10-17T05:44:51.413Z,38.87
2017-10-17T05:47:43.790Z,38.47
2017-10-17T05:50:15.865Z,38.00
2017-10-17T05:52:45.013Z,31.10
2017-10-17T05:55:12.717Z,23.27
2017-10-17T05:57:41.033Z,33.43
2017-10-17T06:00:13.670Z,37.03
2017-10-17T06:02:41.953Z,27.30
2017-10-17T06:05:10.440Z,42.63
2017-10-17T06:07:38.843Z,31.43
2017-10-17T06:10:08.197Z,34.33
2017-10-17T06:12:37.271Z,86.97
2017-10-17T06:15:04.862Z,26.13
2017-10-17T06:17:33.183Z,24.70
2017-10-17T06:20:00.762Z,30.67
2017-10-17T06:22:28.361Z,35.13
2017-10-17T06:24:55.922Z,33.33
2017-10-17T06:27:23.477Z,26.27
2017-10-17T06:29:51.409Z,34.70
2017-10-17T06:32:18.993Z,46.97
2017-10-17T06:34:46.518Z,27.10
2017-10-17T06:37:14.055Z,32.90
2017-10-17T06:39:42.381Z,26.30
2017-10-17T06:42:10.120Z,29.13
2017-10-17T06:44:37.653Z,35.33
2017-10-17T06:47:05.253Z,21.27
2017-10-17T06:49:32.851Z,28.17
2017-10-17T06:52:06.294Z,33.17
2017-10-17T06:54:34.584Z,58.13
2017-10-17T06:57:02.230Z,43.40
2017-10-17T06:59:29.757Z,28.23
2017-10-17T07:01:58.243Z,31.60
2017-10-17T07:04:27.592Z,36.43
2017-10-17T07:06:55.354Z,73.67
2017-10-17T07:09:22.971Z,47.87
2017-10-17T07:11:51.261Z,29.37
2017-10-17T07:14:19.603Z,36.13
2017-10-17T07:16:47.143Z,43.90
2017-10-17T07:19:14.701Z,36.23
2017-10-17T07:21:42.259Z,75.73
2017-10-17T07:24:09.796Z,40.77
2017-10-17T07:26:37.390Z,34.10
2017-10-17T07:29:04.983Z,31.40
2017-10-17T07:31:33.338Z,28.37
2017-10-17T07:34:00.993Z,28.13
2017-10-17T07:36:28.515Z,52.10
2017-10-17T07:38:56.279Z,56.30
2017-10-17T07:41:23.851Z,40.27
2017-10-17T07:43:51.387Z,48.33
2017-10-17T07:46:19.825Z,36.33
2017-10-17T07:48:47.361Z,36.03
2017-10-17T07:51:14.992Z,44.57
2017-10-17T07:53:43.342Z,51.23
2017-10-17T07:56:11.001Z,37.63
2017-10-17T07:58:39.313Z,41.67
2017-10-17T08:01:07.587Z,31.73
2017-10-17T08:03:35.988Z,37.47
2017-10-17T08:06:03.554Z,36.60
2017-10-17T08:08:31.087Z,29.33
2017-10-17T08:10:59.429Z,36.03
2017-10-17T08:13:26.978Z,41.90
2017-10-17T08:15:54.514Z,33.27
2017-10-17T08:18:22.099Z,32.80
2017-10-17T08:20:50.152Z,26.57
2017-10-17T08:23:17.682Z,37.30
2017-10-17T08:25:45.268Z,45.33
2017-10-17T08:28:12.788Z,28.33
2017-10-17T08:30:41.245Z,29.93
2017-10-17T08:33:08.789Z,26.93
2017-10-17T08:35:36.725Z,29.90
2017-10-17T08:38:04.310Z,27.77
2017-10-17T08:40:31.840Z,29.33
2017-10-17T08:43:00.247Z,29.73
2017-10-17T08:45:27.849Z,27.13
2017-10-17T08:47:56.164Z,24.87
2017-10-17T08:50:28.679Z,22.50
2017-10-17T08:52:56.274Z,61.70
2017-10-17T08:55:24.570Z,31.87
2017-10-17T08:57:52.915Z,21.93
2017-10-17T09:00:21.275Z,100.93
2017-10-17T09:02:48.923Z,28.80
2017-10-17T09:05:16.495Z,33.00
2017-10-17T09:07:44.003Z,27.87
2017-10-17T09:10:12.455Z,26.93
2017-10-17T09:12:39.991Z,34.40
2017-10-17T09:15:07.611Z,32.83
2017-10-17T09:17:35.956Z,34.53
2017-10-17T09:20:03.513Z,24.23
2017-10-17T09:22:32.118Z,27.90
2017-10-17T09:24:59.672Z,35.40
2017-10-17T09:27:27.201Z,281.80
2017-10-17T09:29:54.746Z,314.20
2017-10-17T09:32:22.998Z,125.87
2017-10-17T09:34:51.342Z,68.30
2017-10-17T09:37:18.923Z,30.00
2017-10-17T09:39:47.276Z,29.37
2017-10-17T09:42:14.870Z,35.73
2017-10-17T09:44:43.171Z,41.40
2017-10-17T09:47:11.332Z,42.43
2017-10-17T09:49:40.548Z,44.23
2017-10-17T09:52:13.106Z,36.83
2017-10-17T09:54:41.531Z,55.33
2017-10-17T09:57:09.117Z,37.50
2017-10-17T09:59:36.660Z,35.37
2017-10-17T10:02:05.087Z,36.00
2017-10-17T10:04:32.784Z,48.40
2017-10-17T10:07:00.416Z,49.73
2017-10-17T10:09:27.974Z,54.57
2017-10-17T10:11:56.281Z,43.83
2017-10-17T10:14:23.816Z,38.40
2017-10-17T10:16:52.173Z,49.67
2017-10-17T10:19:19.791Z,49.33
2017-10-17T10:21:47.355Z,48.17
2017-10-17T10:24:14.897Z,65.33
2017-10-17T10:26:42.577Z,57.60
2017-10-17T10:29:10.151Z,36.53
2017-10-17T10:31:37.911Z,45.03
2017-10-17T10:34:05.662Z,40.20
2017-10-17T10:36:34.164Z,29.30
2017-10-17T10:39:01.743Z,33.03
2017-10-17T10:41:29.532Z,48.13
2017-10-17T10:43:58.284Z,34.70
2017-10-17T10:46:25.886Z,50.17
2017-10-17T10:48:54.557Z,40.43
2017-10-17T10:51:22.817Z,39.33
2017-10-17T10:53:50.390Z,42.77
2017-10-17T10:56:18.128Z,31.43
2017-10-17T10:58:45.753Z,40.30
2017-10-17T11:01:13.291Z,37.00
2017-10-17T11:03:41.655Z,45.37
2017-10-17T11:06:10.033Z,36.63
2017-10-17T11:08:37.671Z,36.73
2017-10-17T11:11:05.221Z,28.23
2017-10-17T11:13:32.764Z,42.67
2017-10-17T11:16:00.739Z,36.70
2017-10-17T11:18:28.756Z,31.67
2017-10-17T11:20:56.744Z,33.33
2017-10-17T11:23:24.310Z,36.10
2017-10-17T11:25:53.436Z,43.50
2017-10-17T11:28:21.890Z,31.43
2017-10-17T11:30:55.287Z,35.03
2017-10-17T11:33:23.627Z,39.73
2017-10-17T11:35:52.806Z,39.77
2017-10-17T11:38:21.685Z,41.87
2017-10-17T11:41:16.781Z,38.40
2017-10-17T11:43:50.836Z,35.07
2017-10-17T11:46:18.399Z,31.57
2017-10-17T11:48:46.886Z,43.00
2017-10-17T11:51:14.512Z,31.23
2017-10-17T11:53:42.223Z,43.07
2017-10-17T11:56:10.223Z,37.10
2017-10-17T11:58:38.592Z,40.70
2017-10-17T12:01:06.898Z,42.50
2017-10-17T12:03:34.492Z,36.70
2017-10-17T12:06:02.004Z,37.40
2017-10-17T12:08:30.368Z,48.97
2017-10-17T12:10:58.744Z,42.63
2017-10-17T12:13:27.062Z,46.07
2017-10-17T12:15:55.370Z,41.03
2017-10-17T12:18:22.960Z,62.73
2017-10-17T12:20:51.328Z,37.90
2017-10-17T12:23:18.954Z,37.77
2017-10-17T12:25:46.508Z,40.90
2017-10-17T12:28:14.152Z,47.70
2017-10-17T12:30:51.334Z,44.43
2017-10-17T12:33:19.675Z,39.87
2017-10-17T12:35:47.259Z,33.20
2017-10-17T12:38:15.587Z,39.77
2017-10-17T12:40:43.100Z,39.53
2017-10-17T12:43:11.476Z,51.83
2017-10-17T12:45:39.780Z,36.03
2017-10-17T12:48:07.326Z,37.40
2017-10-17T12:50:36.232Z,41.10
2017-10-17T12:53:03.771Z,46.17
2017-10-17T12:55:32.476Z,44.10
2017-10-17T12:58:01.689Z,69.13
2017-10-17T13:00:29.220Z,41.37
2017-10-17T13:02:57.626Z,42.40
2017-10-17T13:05:25.147Z,43.63
2017-10-17T13:07:53.533Z,51.20
2017-10-17T13:10:21.828Z,40.47
2017-10-17T13:12:49.494Z,38.13
2017-10-17T13:15:17.124Z,36.67
2017-10-17T13:17:44.710Z,35.33
2017-10-17T13:20:13.054Z,39.23
2017-10-17T13:22:40.730Z,38.20
2017-10-17T13:25:09.067Z,36.30
2017-10-17T13:27:36.649Z,58.93
2017-10-17T13:30:04.283Z,42.43
2017-10-17T13:38:11.061Z,51.30
2017-10-17T13:40:39.364Z,46.17
2017-10-17T13:43:06.911Z,41.87
2017-10-17T13:45:35.235Z,42.43
2017-10-17T13:48:02.889Z,41.57
2017-10-17T13:50:30.468Z,70.53
2017-10-17T13:52:58.217Z,53.17
2017-10-17T13:55:25.795Z,59.23
2017-10-17T13:57:53.408Z,58.90
2017-10-17T14:00:21.088Z,62.57
2017-10-17T14:02:48.632Z,47.60
2017-10-17T14:05:16.216Z,48.57
2017-10-17T14:07:43.794Z,47.93
2017-10-17T14:10:11.410Z,47.00
2017-10-17T14:12:39.035Z,67.87
2017-10-17T14:15:06.562Z,56.53
2017-10-17T14:17:34.221Z,43.40
2017-10-17T14:20:01.814Z,55.70
2017-10-17T14:22:30.895Z,46.93
2017-10-17T14:24:58.484Z,46.20
2017-10-17T14:27:26.042Z,41.87
2017-10-17T14:29:53.651Z,50.33
2017-10-17T14:32:21.289Z,46.70
2017-10-17T14:34:49.622Z,54.27
2017-10-17T14:37:17.384Z,45.03
2017-10-17T14:39:44.970Z,54.60
2017-10-17T14:42:13.323Z,62.03
2017-10-17T14:44:40.883Z,53.60
2017-10-17T14:47:08.464Z,72.43
2017-10-17T14:49:35.996Z,58.17
2017-10-17T14:52:08.612Z,55.20
2017-10-17T14:54:36.149Z,53.63
2017-10-17T14:57:03.786Z,53.87
2017-10-17T14:59:31.339Z,56.13
2017-10-17T15:01:58.873Z,65.00
2017-10-17T15:04:27.312Z,57.30
2017-10-17T15:06:54.864Z,50.40
2017-10-17T15:09:22.941Z,63.70
2017-10-17T15:11:50.705Z,61.57
2017-10-17T15:14:18.270Z,49.90
2017-10-17T15:16:45.828Z,64.23
2017-10-17T15:19:13.359Z,56.30
2017-10-17T15:21:41.103Z,72.57
2017-10-17T15:24:09.419Z,59.77
2017-10-17T15:26:36.964Z,62.87
2017-10-17T15:29:04.571Z,60.63
2017-10-17T15:31:32.162Z,92.60
2017-10-17T15:33:59.772Z,65.40
2017-10-17T15:36:27.322Z,67.10
2017-10-17T15:38:54.854Z,60.83
2017-10-17T15:41:22.412Z,70.73
2017-10-17T15:43:50.683Z,75.90
2017-10-17T15:46:19.006Z,63.13
2017-10-17T15:48:46.609Z,76.87
2017-10-17T15:51:15.034Z,66.77
2017-10-17T15:53:42.565Z,80.17
2017-10-17T15:56:10.841Z,76.73
2017-10-17T15:58:39.244Z,73.40
2017-10-17T16:01:06.813Z,89.27
2017-10-17T16:03:34.351Z,85.83
2017-10-17T16:06:02.772Z,66.70
2017-10-17T16:08:31.126Z,68.20
2017-10-17T16:10:58.688Z,63.27
2017-10-17T16:13:27.030Z,74.93
2017-10-17T16:15:55.314Z,76.00
2017-10-17T16:18:23.769Z,69.80
2017-10-17T16:20:51.317Z,67.37
2017-10-17T16:23:18.866Z,77.07
2017-10-17T16:25:47.031Z,73.10
2017-10-17T16:28:14.604Z,69.50
2017-10-17T16:30:42.200Z,70.07
2017-10-17T16:33:09.740Z,70.57
2017-10-17T16:35:38.206Z,88.90
2017-10-17T16:38:06.783Z,74.07
2017-10-17T16:40:34.318Z,77.03
2017-10-17T16:43:02.612Z,80.70
2017-10-17T16:45:30.416Z,72.60
2017-10-17T16:47:58.119Z,74.97
2017-10-17T16:50:25.654Z,71.37
2017-10-17T16:52:54.745Z,78.83
2017-10-17T16:55:24.829Z,95.63
2017-10-17T16:57:52.409Z,74.60
2017-10-17T17:00:19.997Z,72.77
2017-10-17T17:02:48.353Z,68.67
2017-10-17T17:05:15.926Z,88.60
2017-10-17T17:07:43.513Z,69.83
2017-10-17T17:10:11.843Z,75.40
2017-10-17T17:12:39.376Z,62.53
2017-10-17T17:15:06.943Z,61.37
2017-10-17T17:17:34.525Z,86.17
2017-10-17T17:20:02.127Z,76.53
2017-10-17T17:22:29.840Z,80.40
2017-10-17T17:24:57.597Z,81.87
2017-10-17T17:27:25.250Z,102.53
2017-10-17T17:29:52.809Z,71.13
2017-10-17T17:32:20.480Z,69.13
2017-10-17T17:34:49.443Z,60.67
2017-10-17T17:37:17.172Z,88.97
2017-10-17T17:39:44.774Z,73.33
2017-10-17T17:42:13.113Z,71.90
2017-10-17T17:44:40.834Z,64.60
2017-10-17T17:47:08.854Z,73.50
2017-10-17T17:49:36.550Z,76.40
2017-10-17T17:52:10.998Z,77.63
2017-10-17T17:54:38.560Z,70.53
2017-10-17T17:57:15.718Z,66.33
2017-10-17T17:59:44.015Z,79.47
2017-10-17T18:02:11.571Z,76.77
2017-10-17T18:04:39.192Z,75.70
2017-10-17T18:07:06.793Z,65.93
2017-10-17T18:09:34.506Z,70.33
2017-10-17T18:12:13.656Z,80.43
2017-10-17T18:14:41.968Z,72.90
2017-10-17T18:17:09.648Z,68.37
2017-10-17T18:19:39.598Z,79.90
2017-10-17T18:22:07.345Z,68.33
2017-10-17T18:24:37.835Z,61.97
2017-10-17T18:27:05.564Z,75.17
2017-10-17T18:29:33.270Z,75.40
2017-10-17T18:32:00.804Z,66.37
2017-10-17T18:34:29.553Z,75.87
2017-10-17T18:36:57.113Z,82.70
2017-10-17T18:39:24.671Z,78.27
2017-10-17T18:41:52.258Z,70.00
2017-10-17T18:44:20.453Z,64.07
2017-10-17T18:46:48.179Z,61.40
2017-10-17T18:49:15.730Z,75.00
2017-10-17T18:51:43.315Z,73.77
2017-10-17T18:54:10.901Z,77.03
2017-10-17T18:56:39.190Z,68.33
2017-10-17T18:59:06.716Z,78.70
2017-10-17T19:01:34.271Z,73.07
2017-10-17T19:04:01.891Z,78.30
2017-10-17T19:06:29.460Z,72.47
2017-10-17T19:08:57.017Z,73.60
2017-10-17T19:11:34.179Z,72.90
2017-10-17T19:14:01.759Z,74.10
2017-10-17T19:16:29.348Z,73.47
2017-10-17T19:18:56.918Z,64.60
2017-10-17T19:21:24.472Z,66.03
2017-10-17T19:23:52.048Z,66.00
2017-10-17T19:26:19.592Z,74.43
2017-10-17T19:28:47.195Z,71.17
2017-10-17T19:31:15.467Z,75.73
2017-10-17T19:33:43.810Z,95.33
2017-10-17T19:36:11.352Z,107.80
2017-10-17T19:38:38.943Z,175.90
2017-10-17T19:41:06.464Z,82.03
2017-10-17T19:43:34.039Z,76.00
2017-10-17T19:46:01.817Z,81.27
2017-10-17T19:48:29.383Z,104.00
2017-10-17T19:50:57.045Z,99.50
2017-10-17T19:53:24.610Z,74.83
2017-10-17T19:56:06.452Z,72.40
2017-10-17T19:58:34.150Z,65.97
2017-10-17T20:01:01.859Z,63.30
2017-10-17T20:03:29.614Z,59.17
2017-10-17T20:05:57.183Z,78.07
2017-10-17T20:08:24.783Z,71.20
2017-10-17T20:10:52.400Z,130.47
2017-10-17T20:13:20.023Z,72.03
2017-10-17T20:15:47.677Z,144.93
2017-10-17T20:18:15.302Z,98.50
2017-10-17T20:20:43.687Z,73.90
2017-10-17T20:23:12.008Z,91.73
2017-10-17T20:25:39.588Z,63.97
2017-10-17T20:28:08.253Z,57.47
2017-10-17T20:30:35.818Z,62.87
2017-10-17T20:33:03.425Z,86.83
2017-10-17T20:35:32.065Z,69.77
2017-10-17T20:37:59.630Z,70.30
2017-10-17T20:40:27.343Z,69.80
2017-10-17T20:42:55.648Z,55.73
2017-10-17T20:45:23.230Z,56.30
2017-10-17T20:47:50.771Z,57.23
2017-10-17T20:50:18.418Z,63.37
2017-10-17T20:52:47.191Z,61.53
2017-10-17T20:55:14.803Z,55.03
2017-10-17T20:57:43.558Z,65.73
2017-10-17T21:00:11.872Z,57.57
2017-10-17T21:02:44.534Z,55.77
2017-10-17T21:05:12.073Z,59.20
2017-10-17T21:07:40.460Z,64.87
2017-10-17T21:10:08.056Z,63.30
2017-10-17T21:12:35.597Z,59.40
2017-10-17T21:15:08.278Z,63.80
2017-10-17T21:17:35.981Z,68.60
2017-10-17T21:20:03.670Z,63.73
2017-10-17T21:22:32.035Z,56.93
2017-10-17T21:25:04.690Z,61.43
2017-10-17T21:27:32.252Z,62.13
2017-10-17T21:29:59.834Z,60.93
2017-10-17T21:32:27.859Z,69.03
2017-10-17T21:34:55.531Z,61.73
2017-10-17T21:37:23.067Z,62.50
2017-10-17T21:39:50.642Z,76.03
2017-10-17T21:42:18.297Z,75.03
2017-10-17T21:44:45.915Z,72.40
2017-10-17T21:47:14.528Z,67.00
2017-10-17T21:49:42.806Z,65.60
2017-10-17T21:52:16.136Z,61.47
2017-10-17T21:54:43.715Z,74.60
2017-10-17T21:57:11.305Z,65.80
2017-10-17T21:59:40.058Z,71.10
2017-10-17T22:02:08.529Z,64.40
2017-10-17T22:04:36.207Z,65.93
2017-10-17T22:07:03.818Z,74.83
2017-10-17T22:09:32.315Z,63.30
2017-10-17T22:11:59.909Z,71.17
2017-10-17T22:14:27.500Z,73.03
2017-10-17T22:16:56.751Z,70.80
2017-10-17T22:19:24.307Z,69.20
2017-10-17T22:21:52.075Z,68.40
2017-10-17T22:24:21.587Z,66.57
2017-10-17T22:26:49.240Z,69.70
2017-10-17T22:29:18.521Z,78.37
2017-10-17T22:31:46.226Z,59.67
2017-10-17T22:34:13.825Z,56.73
2017-10-17T22:36:41.401Z,77.73
2017-10-17T22:39:09.739Z,71.07
2017-10-17T22:41:37.304Z,73.93
2017-10-17T22:44:04.884Z,64.50
2017-10-17T22:46:32.815Z,65.00
2017-10-17T22:49:00.350Z,73.30
2017-10-17T22:51:27.954Z,76.50
2017-10-17T22:53:55.710Z,64.40
2017-10-17T22:56:23.356Z,77.20
2017-10-17T22:58:50.936Z,76.20
2017-10-17T23:01:18.701Z,74.50
2017-10-17T23:03:46.461Z,71.20
2017-10-17T23:06:14.668Z,85.53
2017-10-17T23:08:42.711Z,69.00
2017-10-17T23:11:15.937Z,73.57
2017-10-17T23:13:43.958Z,73.30
2017-10-17T23:16:11.505Z,73.80
2017-10-17T23:18:51.057Z,80.10
2017-10-17T23:21:18.601Z,69.93
2017-10-17T23:23:47.043Z,72.20
2017-10-17T23:26:14.582Z,89.03
2017-10-17T23:28:42.156Z,82.73
2017-10-17T23:31:09.720Z,93.40
2017-10-17T23:33:37.342Z,77.07
2017-10-17T23:36:04.897Z,83.97
2017-10-17T23:38:32.462Z,95.13
2017-10-17T23:41:00.046Z,80.33
2017-10-17T23:43:27.622Z,80.83
2017-10-17T23:45:55.979Z,92.13
2017-10-17T23:48:23.554Z,87.83
2017-10-17T23:50:51.223Z,104.73
2017-10-17T23:53:18.771Z,87.60
2017-10-17T23:55:46.300Z,86.93
2017-10-17T23:58:13.860Z,89.93
